createdAt,value
2022-10-03T00:01:09.534Z,100.00
2022-10-03T00:03:44.539Z,100.00
2022-10-03T00:06:16.446Z,100.00
2022-10-03T00:08:58.870Z,100.00
2022-10-03T00:11:33.885Z,100.00
2022-10-03T00:14:04.554Z,100.00
2022-10-03T00:16:37.417Z,100.00
2022-10-03T00:19:11.149Z,100.00
2022-10-03T00:21:49.625Z,100.00
2022-10-03T00:24:25.212Z,100.00
2022-10-03T00:26:56.842Z,100.00
2022-10-03T00:29:41.406Z,100.00
2022-10-03T00:32:22.087Z,100.00
2022-10-03T00:34:58.529Z,100.00
2022-10-03T00:37:31.679Z,100.00
2022-10-03T00:40:21.098Z,100.00
2022-10-03T00:43:27.364Z,100.00
2022-10-03T00:46:20.028Z,100.00
2022-10-03T00:49:29.673Z,100.00
2022-10-03T00:52:08.572Z,100.00
2022-10-03T00:54:52.728Z,100.00
2022-10-03T00:57:29.807Z,100.00
2022-10-03T01:00:16.091Z,100.00
2022-10-03T01:03:06.199Z,100.00
2022-10-03T01:05:46.448Z,100.00
2022-10-03T01:08:35.394Z,100.00
2022-10-03T01:11:10.051Z,100.00
2022-10-03T01:13:49.566Z,100.00
2022-10-03T01:16:23.001Z,100.00
2022-10-03T01:18:58.477Z,100.00
2022-10-03T01:21:35.029Z,100.00
2022-10-03T01:24:40.204Z,100.00
2022-10-03T01:27:09.501Z,100.00
2022-10-03T01:30:03.677Z,100.00
2022-10-03T01:32:37.749Z,100.00
2022-10-03T01:35:14.713Z,100.00
2022-10-03T01:37:51.383Z,100.00
2022-10-03T01:40:27.251Z,100.00
2022-10-03T01:43:03.955Z,100.00
2022-10-03T01:45:41.090Z,100.00
2022-10-03T01:48:13.971Z,100.00
2022-10-03T01:50:51.634Z,100.00
2022-10-03T01:53:27.107Z,100.00
2022-10-03T01:56:00.291Z,100.00
2022-10-03T01:58:32.066Z,100.00
2022-10-03T02:01:08.354Z,100.00
2022-10-03T02:03:39.398Z,100.00
2022-10-03T02:06:16.033Z,100.00
2022-10-03T02:08:51.148Z,100.00
2022-10-03T02:11:31.079Z,100.00
2022-10-03T02:14:03.139Z,100.00
2022-10-03T02:16:37.966Z,100.00
2022-10-03T02:19:10.334Z,100.00
2022-10-03T02:21:48.186Z,100.00
2022-10-03T02:24:39.672Z,100.00
2022-10-03T02:27:39.294Z,100.00
2022-10-03T02:30:13.975Z,100.00
2022-10-03T02:33:11.886Z,100.00
2022-10-03T02:36:14.790Z,100.00
2022-10-03T02:39:00.597Z,100.00
2022-10-03T02:42:02.986Z,100.00
2022-10-03T02:45:13.314Z,100.00
2022-10-03T02:48:30.790Z,100.00
2022-10-03T02:51:28.879Z,100.00
2022-10-03T02:54:30.086Z,100.00
2022-10-03T02:57:35.865Z,100.00
2022-10-03T03:00:13.608Z,100.00
2022-10-03T03:03:14.665Z,100.00
2022-10-03T03:06:33.912Z,100.00
2022-10-03T03:09:32.948Z,100.00
2022-10-03T03:12:30.510Z,100.00
2022-10-03T03:15:37.699Z,100.00
2022-10-03T03:18:11.310Z,100.00
2022-10-03T03:20:55.777Z,100.00
2022-10-03T03:23:47.089Z,100.00
2022-10-03T03:26:36.640Z,100.00
2022-10-03T03:29:12.310Z,100.00
2022-10-03T03:31:45.796Z,100.00
2022-10-03T03:34:19.158Z,100.00
2022-10-03T03:36:54.270Z,100.00
2022-10-03T03:39:41.698Z,100.00
2022-10-03T03:42:28.728Z,100.00
2022-10-03T03:45:09.904Z,100.00
2022-10-03T03:48:03.289Z,100.00
2022-10-03T03:50:59.085Z,100.00
2022-10-03T03:54:02.036Z,100.00
2022-10-03T03:56:44.307Z,100.00
2022-10-03T03:59:23.085Z,100.00
2022-10-03T04:02:04.960Z,100.00
2022-10-03T04:04:48.471Z,100.00
2022-10-03T04:07:27.127Z,100.00
2022-10-03T04:10:15.085Z,100.00
2022-10-03T04:13:01.865Z,100.00
2022-10-03T04:15:52.772Z,100.00
2022-10-03T04:18:56.601Z,100.00
2022-10-03T04:21:37.675Z,100.00
2022-10-03T04:24:34.458Z,100.00
2022-10-03T04:27:13.554Z,100.00
2022-10-03T04:29:48.276Z,100.00
2022-10-03T04:32:37.862Z,100.00
2022-10-03T04:35:17.819Z,100.00
2022-10-03T04:37:49.078Z,100.00
2022-10-03T04:40:28.191Z,100.00
2022-10-03T04:43:05.921Z,100.00
2022-10-03T04:45:47.518Z,100.00
2022-10-03T04:48:18.371Z,100.00
2022-10-03T04:50:52.831Z,100.00
2022-10-03T04:53:27.830Z,100.00
2022-10-03T04:56:04.768Z,100.00
2022-10-03T04:58:38.884Z,100.00
2022-10-03T05:01:15.206Z,100.00
2022-10-03T05:03:50.370Z,100.00
2022-10-03T05:06:29.209Z,100.00
2022-10-03T05:09:04.491Z,100.00
2022-10-03T05:11:49.429Z,100.00
2022-10-03T05:14:24.037Z,100.00
2022-10-03T05:16:58.500Z,100.00
2022-10-03T05:19:55.378Z,100.00
2022-10-03T05:22:33.901Z,100.00
2022-10-03T05:25:11.212Z,100.00
2022-10-03T05:27:44.519Z,100.00
2022-10-03T05:30:18.148Z,100.00
2022-10-03T05:32:51.377Z,100.00
2022-10-03T05:35:30.833Z,100.00
2022-10-03T05:38:23.415Z,100.00
2022-10-03T05:41:02.445Z,100.00
2022-10-03T05:43:45.502Z,100.00
2022-10-03T05:46:22.515Z,100.00
2022-10-03T05:48:59.174Z,100.00
2022-10-03T05:51:46.575Z,100.00
2022-10-03T05:54:56.270Z,100.00
2022-10-03T05:58:00.738Z,100.00
2022-10-03T06:00:35.914Z,100.00
2022-10-03T06:03:35.544Z,100.00
2022-10-03T06:06:20.981Z,100.00
2022-10-03T06:08:58.622Z,100.00
2022-10-03T06:11:59.586Z,100.00
2022-10-03T06:14:35.270Z,100.00
2022-10-03T06:17:14.598Z,100.00
2022-10-03T06:19:49.755Z,100.00
2022-10-03T06:22:45.630Z,100.00
2022-10-03T06:25:53.722Z,100.00
2022-10-03T06:28:56.328Z,100.00
2022-10-03T06:31:50.584Z,100.00
2022-10-03T06:34:41.801Z,100.00
2022-10-03T06:37:30.886Z,100.00
2022-10-03T06:40:40.081Z,100.00
2022-10-03T06:43:22.085Z,100.00
2022-10-03T06:46:23.161Z,100.00
2022-10-03T06:49:37.143Z,100.00
2022-10-03T06:52:25.281Z,100.00
2022-10-03T06:55:31.762Z,100.00
2022-10-03T06:58:23.189Z,100.00
2022-10-03T07:00:59.711Z,100.00
2022-10-03T07:03:52.573Z,100.00
2022-10-03T07:06:48.818Z,100.00
2022-10-03T07:10:07.605Z,100.00
2022-10-03T07:13:11.742Z,100.00
2022-10-03T07:16:14.247Z,100.00
2022-10-03T07:19:08.073Z,100.00
2022-10-03T07:22:05.701Z,100.00
2022-10-03T07:25:05.289Z,100.00
2022-10-03T07:27:50.995Z,100.00
2022-10-03T07:30:21.224Z,100.00
2022-10-03T07:33:25.389Z,100.00
2022-10-03T07:36:38.952Z,100.00
2022-10-03T07:39:17.926Z,100.00
2022-10-03T07:42:08.766Z,100.00
2022-10-03T07:45:02.603Z,100.00
2022-10-03T07:47:55.202Z,100.00
2022-10-03T07:50:59.286Z,100.00
2022-10-03T07:53:43.415Z,100.00
2022-10-03T07:56:25.414Z,100.00
2022-10-03T07:59:05.531Z,100.00
2022-10-03T08:01:49.855Z,100.00
2022-10-03T08:04:51.226Z,100.00
2022-10-03T08:07:34.653Z,100.00
2022-10-03T08:10:23.106Z,100.00
2022-10-03T08:13:10.181Z,100.00
2022-10-03T08:15:53.297Z,100.00
2022-10-03T08:18:37.623Z,100.00
2022-10-03T08:21:11.011Z,100.00
2022-10-03T08:24:11.266Z,100.00
2022-10-03T08:27:17.751Z,100.00
2022-10-03T08:30:15.274Z,100.00
2022-10-03T08:32:58.231Z,100.00
2022-10-03T08:35:40.051Z,100.00
2022-10-03T08:38:46.844Z,100.00
2022-10-03T08:41:52.661Z,100.00
2022-10-03T08:44:46.043Z,100.00
2022-10-03T08:47:35.882Z,100.00
2022-10-03T08:50:54.737Z,100.00
2022-10-03T08:53:44.266Z,100.00
2022-10-03T08:56:15.017Z,100.00
2022-10-03T08:59:20.519Z,100.00
2022-10-03T09:02:29.987Z,100.00
2022-10-03T09:05:26.821Z,100.00
2022-10-03T09:08:28.493Z,100.00
2022-10-03T09:11:27.043Z,100.00
2022-10-03T09:14:31.381Z,100.00
2022-10-03T09:17:07.337Z,100.00
2022-10-03T09:20:08.977Z,100.00
2022-10-03T09:23:00.957Z,100.00
2022-10-03T09:25:42.839Z,100.00
2022-10-03T09:28:45.801Z,100.00
2022-10-03T09:31:26.279Z,100.00
2022-10-03T09:34:21.129Z,100.00
2022-10-03T09:37:13.033Z,100.00
2022-10-03T09:40:27.352Z,100.00
2022-10-03T09:43:09.201Z,100.00
2022-10-03T09:46:08.720Z,100.00
2022-10-03T09:48:51.117Z,100.00
2022-10-03T09:51:27.317Z,100.00
2022-10-03T09:54:35.348Z,100.00
2022-10-03T09:57:40.219Z,100.00
2022-10-03T10:00:27.777Z,100.00
2022-10-03T10:03:18.184Z,100.00
2022-10-03T10:06:12.045Z,100.00
2022-10-03T10:09:04.727Z,100.00
2022-10-03T10:11:46.199Z,100.00
2022-10-03T10:14:51.575Z,100.00
2022-10-03T10:18:07.235Z,100.00
2022-10-03T10:21:00.610Z,100.00
2022-10-03T10:23:42.650Z,100.00
2022-10-03T10:26:45.540Z,100.00
2022-10-03T10:29:34.807Z,100.00
2022-10-03T10:32:31.119Z,100.00
2022-10-03T10:35:28.810Z,100.00
2022-10-03T10:38:32.670Z,100.00
2022-10-03T10:41:34.054Z,100.00
2022-10-03T10:44:47.802Z,100.00
2022-10-03T10:48:06.769Z,100.00
2022-10-03T10:51:14.598Z,100.00
2022-10-03T10:54:21.733Z,100.00
2022-10-03T10:57:18.327Z,100.00
2022-10-03T11:00:09.088Z,98.17
2022-10-03T11:03:22.510Z,100.00
2022-10-03T11:06:53.446Z,100.00
2022-10-03T11:09:58.283Z,100.00
2022-10-03T11:13:11.407Z,100.00
2022-10-03T11:16:00.492Z,90.16
2022-10-03T11:19:34.787Z,86.74
2022-10-03T11:22:35.885Z,100.00
2022-10-03T11:25:31.616Z,84.52
2022-10-03T11:28:28.664Z,88.80
2022-10-03T11:31:47.381Z,82.90
2022-10-03T11:35:03.248Z,81.33
2022-10-03T11:37:41.623Z,82.07
2022-10-03T11:40:33.582Z,85.58
2022-10-03T11:43:33.677Z,67.06
2022-10-03T11:46:17.159Z,64.03
2022-10-03T11:48:48.315Z,61.03
2022-10-03T11:51:20.377Z,64.03
2022-10-03T11:54:03.765Z,60.79
2022-10-03T11:56:45.427Z,62.12
2022-10-03T11:59:34.137Z,70.75
2022-10-03T12:02:16.454Z,65.99
2022-10-03T12:04:52.938Z,63.83
2022-10-03T12:07:58.435Z,61.08
2022-10-03T12:10:39.064Z,62.71
2022-10-03T12:13:13.468Z,65.95
2022-10-03T12:15:43.617Z,67.21
2022-10-03T12:18:16.801Z,74.92
2022-10-03T12:21:08.433Z,62.23
2022-10-03T12:23:51.920Z,66.10
2022-10-03T12:26:29.395Z,55.32
2022-10-03T12:28:58.704Z,58.47
2022-10-03T12:31:30.750Z,59.96
2022-10-03T12:34:02.420Z,56.25
2022-10-03T12:36:32.065Z,55.63
2022-10-03T12:39:08.742Z,53.31
2022-10-03T12:41:58.687Z,57.20
2022-10-03T12:44:37.212Z,53.96
2022-10-03T12:47:32.251Z,50.89
2022-10-03T12:50:17.867Z,53.97
2022-10-03T12:52:54.417Z,50.55
2022-10-03T12:55:28.344Z,50.18
2022-10-03T12:58:03.317Z,50.06
2022-10-03T13:00:35.611Z,52.52
2022-10-03T13:03:17.373Z,49.68
2022-10-03T13:06:07.356Z,51.29
2022-10-03T13:08:44.668Z,51.47
2022-10-03T13:11:29.435Z,52.44
2022-10-03T13:14:08.492Z,51.39
2022-10-03T13:16:38.507Z,54.05
2022-10-03T13:19:11.605Z,54.26
2022-10-03T13:22:03.378Z,51.55
2022-10-03T13:24:38.043Z,53.07
2022-10-03T13:27:23.977Z,49.70
2022-10-03T13:29:57.387Z,51.83
2022-10-03T13:32:31.662Z,50.42
2022-10-03T13:35:31.736Z,49.82
2022-10-03T13:38:15.278Z,50.36
2022-10-03T13:40:47.025Z,48.72
2022-10-03T13:43:18.840Z,49.42
2022-10-03T13:45:50.189Z,51.20
2022-10-03T13:48:21.124Z,49.37
2022-10-03T13:50:56.152Z,47.78
2022-10-03T13:53:48.699Z,49.06
2022-10-03T13:56:22.313Z,48.02
2022-10-03T13:58:56.829Z,45.95
2022-10-03T14:01:38.675Z,44.76
2022-10-03T14:04:28.500Z,46.15
2022-10-03T14:06:59.006Z,46.58
2022-10-03T14:09:41.984Z,44.31
2022-10-03T14:12:28.207Z,44.86
2022-10-03T14:15:25.749Z,44.25
2022-10-03T14:18:00.063Z,45.81
2022-10-03T14:20:31.490Z,46.24
2022-10-03T14:23:11.831Z,45.70
2022-10-03T14:25:42.365Z,43.99
2022-10-03T14:28:12.032Z,43.65
2022-10-03T14:31:05.480Z,44.65
2022-10-03T14:33:42.601Z,46.46
2022-10-03T14:36:25.971Z,47.72
2022-10-03T14:39:08.854Z,44.54
2022-10-03T14:41:45.674Z,43.87
2022-10-03T14:44:17.415Z,44.39
2022-10-03T14:46:50.076Z,43.01
2022-10-03T14:52:26.012Z,43.51
2022-10-03T14:54:56.923Z,43.37
2022-10-03T14:57:47.648Z,44.22
2022-10-03T15:00:27.555Z,44.32
2022-10-03T15:02:56.040Z,44.11
2022-10-03T15:05:36.135Z,44.70
2022-10-03T15:08:14.512Z,44.06
2022-10-03T15:10:43.184Z,45.64
2022-10-03T15:13:12.042Z,43.58
2022-10-03T15:15:41.650Z,43.56
2022-10-03T15:18:16.970Z,45.67
2022-10-03T15:20:47.079Z,43.36
2022-10-03T15:23:21.354Z,44.03
2022-10-03T15:25:53.193Z,43.82
2022-10-03T15:28:24.013Z,45.53
2022-10-03T15:30:54.690Z,45.39
2022-10-03T15:33:29.280Z,46.19
2022-10-03T15:36:05.789Z,45.23
2022-10-03T15:38:35.981Z,45.67
2022-10-03T15:41:10.847Z,45.75
2022-10-03T15:43:47.131Z,46.11
2022-10-03T15:46:27.627Z,46.60
2022-10-03T15:48:56.028Z,47.43
2022-10-03T15:51:27.426Z,46.39
2022-10-03T15:53:59.384Z,46.93
2022-10-03T15:56:31.564Z,47.96
2022-10-03T15:59:04.126Z,47.34
2022-10-03T16:01:38.664Z,48.47
2022-10-03T16:04:13.381Z,49.38
2022-10-03T16:06:47.852Z,49.75
2022-10-03T16:09:19.974Z,49.24
2022-10-03T16:11:55.710Z,48.86
2022-10-03T16:14:25.141Z,49.51
2022-10-03T16:16:56.562Z,50.36
2022-10-03T16:19:35.263Z,52.00
2022-10-03T16:22:12.319Z,52.09
2022-10-03T16:24:44.505Z,54.87
2022-10-03T16:27:16.851Z,62.87
2022-10-03T16:29:50.040Z,58.05
2022-10-03T16:32:20.239Z,57.11
2022-10-03T16:34:49.801Z,58.63
2022-10-03T16:37:21.749Z,62.85
2022-10-03T16:39:56.658Z,64.43
2022-10-03T16:42:28.960Z,66.80
2022-10-03T16:45:01.564Z,68.90
2022-10-03T16:47:34.315Z,68.99
2022-10-03T16:50:20.298Z,72.85
2022-10-03T16:52:53.031Z,70.84
2022-10-03T16:55:24.270Z,72.74
2022-10-03T16:57:56.964Z,73.76
2022-10-03T17:00:30.081Z,69.91
2022-10-03T17:02:58.492Z,75.78
2022-10-03T17:05:27.096Z,77.73
2022-10-03T17:08:06.625Z,78.47
2022-10-03T17:10:47.739Z,82.92
2022-10-03T17:13:17.545Z,79.08
2022-10-03T17:15:49.793Z,74.94
2022-10-03T17:18:25.813Z,73.63
2022-10-03T17:20:57.097Z,75.63
2022-10-03T17:23:33.958Z,77.09
2022-10-03T17:26:06.589Z,81.30
2022-10-03T17:28:44.583Z,89.43
2022-10-03T17:31:28.843Z,98.19
2022-10-03T17:34:02.740Z,98.53
2022-10-03T17:36:44.979Z,98.36
2022-10-03T17:39:23.558Z,100.00
2022-10-03T17:41:54.149Z,100.00
2022-10-03T17:44:26.655Z,100.00
2022-10-03T17:46:59.761Z,100.00
2022-10-03T17:49:43.615Z,100.00
2022-10-03T17:52:16.073Z,100.00
2022-10-03T17:54:49.298Z,100.00
2022-10-03T17:57:23.579Z,100.00
2022-10-03T17:59:58.370Z,100.00
2022-10-03T18:02:34.108Z,100.00
2022-10-03T18:05:12.039Z,100.00
2022-10-03T18:07:43.095Z,100.00
2022-10-03T18:10:21.762Z,100.00
2022-10-03T18:12:53.762Z,100.00
2022-10-03T18:15:27.800Z,100.00
2022-10-03T18:18:22.259Z,100.00
2022-10-03T18:20:52.211Z,100.00
2022-10-03T18:23:49.850Z,100.00
2022-10-03T18:26:24.999Z,100.00
2022-10-03T18:29:01.702Z,100.00
2022-10-03T18:31:34.354Z,100.00
2022-10-03T18:34:04.748Z,100.00
2022-10-03T18:36:35.860Z,100.00
2022-10-03T18:39:08.571Z,100.00
2022-10-03T18:41:45.634Z,100.00
2022-10-03T18:44:16.200Z,100.00
2022-10-03T18:46:47.750Z,100.00
2022-10-03T18:49:33.349Z,100.00
2022-10-03T18:52:08.747Z,100.00
2022-10-03T18:54:45.846Z,100.00
2022-10-03T18:57:20.926Z,100.00
2022-10-03T18:59:53.689Z,100.00
2022-10-03T19:02:26.796Z,100.00
2022-10-03T19:04:58.042Z,100.00
2022-10-03T19:07:28.003Z,100.00
2022-10-03T19:10:21.469Z,100.00
2022-10-03T19:12:55.087Z,100.00
2022-10-03T19:15:33.524Z,100.00
2022-10-03T19:18:10.403Z,100.00
2022-10-03T19:20:40.076Z,100.00
2022-10-03T19:23:12.490Z,100.00
2022-10-03T19:25:42.870Z,100.00
2022-10-03T19:28:20.491Z,100.00
2022-10-03T19:31:00.017Z,100.00
2022-10-03T19:33:28.959Z,100.00
2022-10-03T19:36:01.514Z,100.00
2022-10-03T19:38:32.989Z,100.00
2022-10-03T19:41:05.794Z,100.00
2022-10-03T19:43:40.239Z,100.00
2022-10-03T19:46:24.726Z,100.00
2022-10-03T19:49:03.805Z,100.00
2022-10-03T19:51:32.219Z,100.00
2022-10-03T19:54:00.979Z,100.00
2022-10-03T19:56:33.274Z,100.00
2022-10-03T19:59:05.995Z,100.00
2022-10-03T20:01:43.124Z,100.00
2022-10-03T20:04:11.750Z,100.00
2022-10-03T20:06:41.917Z,100.00
2022-10-03T20:09:20.975Z,100.00
2022-10-03T20:11:51.491Z,100.00
2022-10-03T20:14:26.818Z,100.00
2022-10-03T20:16:56.912Z,100.00
2022-10-03T20:19:27.145Z,100.00
2022-10-03T20:21:57.106Z,100.00
2022-10-03T20:24:32.277Z,100.00
2022-10-03T20:27:10.073Z,100.00
2022-10-03T20:29:44.194Z,100.00
2022-10-03T20:32:15.968Z,100.00
2022-10-03T20:34:50.534Z,100.00
2022-10-03T20:37:28.187Z,100.00
2022-10-03T20:40:04.027Z,100.00
2022-10-03T20:42:32.566Z,100.00
2022-10-03T20:45:04.012Z,100.00
2022-10-03T20:47:46.160Z,100.00
2022-10-03T20:50:20.659Z,100.00
2022-10-03T20:52:54.303Z,100.00
2022-10-03T20:55:25.146Z,100.00
2022-10-03T20:58:00.948Z,100.00
2022-10-03T21:00:31.638Z,100.00
2022-10-03T21:03:02.810Z,100.00
2022-10-03T21:05:36.332Z,100.00
2022-10-03T21:08:06.718Z,100.00
2022-10-03T21:10:38.295Z,100.00
2022-10-03T21:13:08.797Z,100.00
2022-10-03T21:15:44.033Z,100.00
2022-10-03T21:18:20.868Z,100.00
2022-10-03T21:20:51.604Z,100.00
2022-10-03T21:23:23.833Z,100.00
2022-10-03T21:25:55.142Z,100.00
2022-10-03T21:28:26.757Z,100.00
2022-10-03T21:31:10.732Z,100.00
2022-10-03T21:33:42.794Z,100.00
2022-10-03T21:36:14.449Z,100.00
2022-10-03T21:38:44.994Z,100.00
2022-10-03T21:41:28.054Z,100.00
2022-10-03T21:43:59.504Z,100.00
2022-10-03T21:46:37.458Z,100.00
2022-10-03T21:49:23.197Z,100.00
2022-10-03T21:52:14.030Z,100.00
2022-10-03T21:54:53.986Z,100.00
2022-10-03T21:57:27.047Z,100.00
2022-10-03T22:00:11.750Z,100.00
2022-10-03T22:02:49.624Z,100.00
2022-10-03T22:05:25.801Z,100.00
2022-10-03T22:07:54.214Z,100.00
2022-10-03T22:10:24.262Z,100.00
2022-10-03T22:12:54.354Z,100.00
2022-10-03T22:15:28.600Z,100.00
2022-10-03T22:18:00.983Z,100.00
2022-10-03T22:20:31.171Z,100.00
2022-10-03T22:23:11.863Z,100.00
2022-10-03T22:25:44.206Z,100.00
2022-10-03T22:28:19.931Z,100.00
2022-10-03T22:30:56.286Z,100.00
2022-10-03T22:33:35.674Z,100.00
2022-10-03T22:36:04.850Z,100.00
2022-10-03T22:38:35.653Z,100.00
2022-10-03T22:41:07.398Z,100.00
2022-10-03T22:43:37.303Z,100.00
2022-10-03T22:46:06.835Z,100.00
2022-10-03T22:48:40.158Z,100.00
2022-10-03T22:51:10.876Z,100.00
2022-10-03T22:53:40.455Z,100.00
2022-10-03T22:56:33.990Z,100.00
2022-10-03T22:59:03.311Z,100.00
2022-10-03T23:01:32.186Z,100.00
2022-10-03T23:04:02.170Z,100.00
2022-10-03T23:06:41.279Z,100.00
2022-10-03T23:09:13.706Z,100.00
2022-10-03T23:11:44.032Z,100.00
2022-10-03T23:14:16.333Z,100.00
2022-10-03T23:16:52.473Z,100.00
2022-10-03T23:19:32.959Z,100.00
2022-10-03T23:22:01.559Z,100.00
2022-10-03T23:24:31.677Z,100.00
2022-10-03T23:27:30.839Z,100.00
2022-10-03T23:30:35.218Z,100.00
2022-10-03T23:33:03.555Z,100.00
2022-10-03T23:35:37.967Z,100.00
2022-10-03T23:38:48.150Z,100.00
2022-10-03T23:41:21.538Z,100.00
2022-10-03T23:43:51.159Z,100.00
2022-10-03T23:46:21.155Z,100.00
2022-10-03T23:48:51.263Z,100.00
2022-10-03T23:51:22.993Z,100.00
2022-10-03T23:53:52.864Z,100.00
2022-10-03T23:56:35.199Z,100.00
2022-10-03T23:59:12.540Z,100.00
